createdAt,value
2023-05-13T00:01:52.388Z,9.60
2023-05-13T00:04:19.224Z,9.00
2023-05-13T00:06:45.956Z,9.60
2023-05-13T00:09:12.938Z,9.40
2023-05-13T00:11:39.845Z,9.20
2023-05-13T00:14:09.791Z,9.60
2023-05-13T00:16:36.680Z,9.00
2023-05-13T00:19:03.776Z,8.90
2023-05-13T00:21:30.660Z,9.10
2023-05-13T00:23:57.667Z,9.50
2023-05-13T00:26:24.615Z,9.60
2023-05-13T00:28:51.452Z,10.10
2023-05-13T00:31:18.478Z,9.10
2023-05-13T00:33:45.359Z,9.20
2023-05-13T00:36:12.535Z,8.40
2023-05-13T00:38:39.855Z,8.40
2023-05-13T00:41:07.108Z,8.60
2023-05-13T00:43:33.970Z,9.00
2023-05-13T00:46:01.008Z,8.20
2023-05-13T00:48:27.930Z,8.90
2023-05-13T00:50:54.747Z,8.70
2023-05-13T00:53:21.695Z,8.70
2023-05-13T00:55:48.590Z,8.10
2023-05-13T00:58:17.434Z,8.70
2023-05-13T01:01:11.363Z,8.90
2023-05-13T01:03:51.217Z,8.90
2023-05-13T01:06:49.117Z,8.80
2023-05-13T01:09:31.186Z,8.60
2023-05-13T01:11:57.979Z,8.50
2023-05-13T01:14:32.260Z,8.30
2023-05-13T01:17:05.540Z,7.40
2023-05-13T01:19:42.618Z,7.80
2023-05-13T01:22:09.483Z,8.10
2023-05-13T01:24:36.464Z,7.60
2023-05-13T01:27:03.847Z,7.70
2023-05-13T01:29:30.784Z,7.30
2023-05-13T01:31:57.621Z,7.70
2023-05-13T01:34:24.461Z,8.20
2023-05-13T01:36:51.208Z,8.00
2023-05-13T01:39:19.697Z,7.50
2023-05-13T01:41:47.090Z,7.90
2023-05-13T01:44:14.114Z,8.20
2023-05-13T01:46:42.972Z,8.00
2023-05-13T01:49:10.289Z,7.60
2023-05-13T01:51:38.019Z,8.30
2023-05-13T01:54:06.021Z,7.80
2023-05-13T01:56:33.356Z,8.70
2023-05-13T01:59:00.219Z,8.00
2023-05-13T02:01:26.957Z,8.40
2023-05-13T02:03:54.025Z,8.80
2023-05-13T02:06:21.446Z,9.10
2023-05-13T02:08:49.091Z,8.50
2023-05-13T02:11:15.945Z,7.60
2023-05-13T02:13:42.772Z,7.90
2023-05-13T02:16:11.102Z,7.90
2023-05-13T02:18:38.081Z,7.50
2023-05-13T02:21:05.681Z,8.20
2023-05-13T02:23:33.336Z,7.00
2023-05-13T02:26:01.835Z,7.60
2023-05-13T02:28:29.483Z,8.70
2023-05-13T02:30:56.227Z,7.60
2023-05-13T02:33:23.383Z,8.10
2023-05-13T02:35:51.352Z,8.60
2023-05-13T02:38:18.427Z,8.70
2023-05-13T02:40:45.264Z,8.70
2023-05-13T02:43:12.245Z,8.80
2023-05-13T02:45:44.521Z,7.60
2023-05-13T02:48:11.424Z,8.70
2023-05-13T02:50:40.641Z,9.20
2023-05-13T02:53:09.003Z,9.90
2023-05-13T02:55:37.085Z,9.00
2023-05-13T02:58:04.752Z,8.20
2023-05-13T03:00:32.116Z,8.60
2023-05-13T03:02:59.196Z,8.50
2023-05-13T03:05:27.835Z,9.10
2023-05-13T03:07:58.071Z,8.30
2023-05-13T03:10:26.046Z,8.80
2023-05-13T03:12:52.799Z,8.90
2023-05-13T03:15:19.726Z,8.90
2023-05-13T03:17:46.590Z,8.70
2023-05-13T03:20:13.506Z,9.00
2023-05-13T03:22:40.320Z,9.10
2023-05-13T03:25:07.763Z,8.60
2023-05-13T03:27:43.354Z,8.10
2023-05-13T03:30:10.912Z,7.60
2023-05-13T03:32:44.907Z,9.00
2023-05-13T03:35:12.355Z,8.70
2023-05-13T03:37:39.721Z,8.60
2023-05-13T03:40:08.068Z,9.20
2023-05-13T03:42:35.382Z,8.30
2023-05-13T03:45:03.042Z,8.60
2023-05-13T03:47:32.343Z,7.90
2023-05-13T03:50:01.172Z,9.40
2023-05-13T03:52:30.985Z,9.40
2023-05-13T03:54:58.399Z,8.40
2023-05-13T03:57:25.662Z,8.80
2023-05-13T03:59:52.478Z,8.20
2023-05-13T04:02:21.751Z,8.80
2023-05-13T04:04:48.802Z,7.40
2023-05-13T04:07:16.082Z,6.90
2023-05-13T04:09:42.965Z,7.20
2023-05-13T04:12:09.814Z,6.90
2023-05-13T04:14:36.815Z,7.30
2023-05-13T04:17:03.661Z,7.40
2023-05-13T04:19:30.509Z,7.50
2023-05-13T04:21:57.279Z,7.50
2023-05-13T04:24:24.136Z,7.00
2023-05-13T04:26:50.980Z,7.90
2023-05-13T04:29:18.559Z,7.40
2023-05-13T04:31:46.148Z,8.00
2023-05-13T04:34:13.076Z,8.90
2023-05-13T04:36:40.645Z,10.50
2023-05-13T04:39:08.923Z,25.10
2023-05-13T04:41:35.965Z,28.90
2023-05-13T04:44:03.313Z,22.00
2023-05-13T04:46:30.595Z,10.60
2023-05-13T04:48:57.483Z,9.80
2023-05-13T04:51:25.452Z,10.60
2023-05-13T04:53:52.729Z,10.40
2023-05-13T04:56:20.792Z,11.60
2023-05-13T04:58:47.636Z,14.60
2023-05-13T05:01:15.525Z,14.10
2023-05-13T05:03:42.695Z,14.60
2023-05-13T05:06:09.829Z,15.70
2023-05-13T05:08:36.965Z,17.30
2023-05-13T05:11:03.874Z,20.60
2023-05-13T05:13:32.796Z,21.10
2023-05-13T05:15:59.518Z,19.60
2023-05-13T05:18:26.533Z,20.20
2023-05-13T05:20:54.461Z,15.60
2023-05-13T05:23:23.790Z,17.80
2023-05-13T05:26:10.467Z,15.50
2023-05-13T05:28:44.968Z,10.40
2023-05-13T05:31:12.965Z,11.20
2023-05-13T05:33:40.511Z,7.10
2023-05-13T05:36:08.005Z,8.70
2023-05-13T05:38:35.431Z,6.50
2023-05-13T05:41:03.200Z,6.10
2023-05-13T05:43:30.666Z,5.80
2023-05-13T05:45:57.615Z,5.80
2023-05-13T05:48:25.629Z,5.30
2023-05-13T05:50:52.622Z,6.50
2023-05-13T05:53:26.353Z,6.10
2023-05-13T05:55:53.609Z,6.00
2023-05-13T05:58:20.960Z,6.60
2023-05-13T06:00:47.902Z,6.00
2023-05-13T06:03:14.910Z,7.00
2023-05-13T06:05:42.518Z,6.80
2023-05-13T06:08:09.442Z,5.60
2023-05-13T06:10:36.307Z,5.60
2023-05-13T06:13:03.538Z,6.70
2023-05-13T06:15:30.918Z,6.90
2023-05-13T06:17:57.902Z,8.30
2023-05-13T06:20:25.315Z,8.80
2023-05-13T06:22:52.068Z,8.20
2023-05-13T06:25:18.914Z,8.80
2023-05-13T06:27:45.644Z,7.80
2023-05-13T06:30:12.907Z,8.30
2023-05-13T06:32:50.361Z,8.50
2023-05-13T06:35:27.425Z,8.90
2023-05-13T06:37:54.178Z,9.50
2023-05-13T06:40:21.332Z,6.60
2023-05-13T06:42:48.384Z,6.80
2023-05-13T06:45:23.503Z,6.10
2023-05-13T06:47:51.492Z,6.20
2023-05-13T06:50:18.725Z,6.10
2023-05-13T06:52:46.852Z,6.10
2023-05-13T06:55:13.722Z,4.90
2023-05-13T06:57:43.241Z,6.30
2023-05-13T07:00:11.077Z,5.00
2023-05-13T07:02:38.059Z,5.20
2023-05-13T07:05:05.658Z,5.50
2023-05-13T07:07:32.541Z,4.60
2023-05-13T07:09:59.331Z,4.90
2023-05-13T07:12:26.227Z,5.20
2023-05-13T07:14:53.035Z,4.20
2023-05-13T07:17:19.921Z,3.50
2023-05-13T07:19:47.623Z,3.60
2023-05-13T07:22:14.479Z,3.20
2023-05-13T07:24:41.878Z,3.50
2023-05-13T07:27:08.741Z,3.20
2023-05-13T07:29:35.522Z,3.00
2023-05-13T07:32:06.017Z,3.10
2023-05-13T07:34:32.785Z,3.20
2023-05-13T07:36:59.863Z,2.90
2023-05-13T07:39:27.297Z,4.40
2023-05-13T07:41:54.435Z,4.20
2023-05-13T07:44:21.736Z,5.00
2023-05-13T07:46:49.275Z,4.40
2023-05-13T07:49:16.271Z,4.30
2023-05-13T07:51:43.111Z,4.10
2023-05-13T07:54:10.464Z,3.90
2023-05-13T07:56:38.304Z,4.30
2023-05-13T07:59:05.179Z,3.30
2023-05-13T08:01:32.097Z,3.70
2023-05-13T08:03:59.060Z,3.80
2023-05-13T08:07:13.641Z,3.00
2023-05-13T08:09:40.595Z,2.90
2023-05-13T08:12:08.014Z,3.10
2023-05-13T08:14:34.770Z,3.00
2023-05-13T08:17:02.175Z,3.20
2023-05-13T08:19:28.907Z,3.20
2023-05-13T08:21:55.705Z,2.70
2023-05-13T08:24:22.628Z,2.90
2023-05-13T08:26:49.451Z,2.80
2023-05-13T08:29:16.285Z,3.80
2023-05-13T08:31:43.324Z,2.80
2023-05-13T08:34:10.201Z,2.80
2023-05-13T08:36:37.352Z,2.70
2023-05-13T08:39:04.219Z,2.90
2023-05-13T08:41:32.188Z,2.90
2023-05-13T08:44:00.159Z,2.70
2023-05-13T08:46:30.091Z,2.40
2023-05-13T08:48:57.130Z,3.00
2023-05-13T08:51:24.040Z,2.70
2023-05-13T08:53:51.780Z,2.70
2023-05-13T08:56:18.506Z,2.70
2023-05-13T08:58:46.054Z,2.60
2023-05-13T09:01:13.167Z,2.80
2023-05-13T09:03:43.813Z,2.80
2023-05-13T09:06:10.545Z,2.90
2023-05-13T09:08:37.411Z,2.00
2023-05-13T09:11:04.184Z,2.30
2023-05-13T09:13:31.034Z,2.30
2023-05-13T09:15:57.998Z,2.30
2023-05-13T09:18:30.207Z,2.70
2023-05-13T09:20:57.211Z,2.30
2023-05-13T09:23:24.213Z,2.20
2023-05-13T09:25:50.932Z,2.30
2023-05-13T09:28:17.675Z,2.20
2023-05-13T09:30:46.771Z,2.20
2023-05-13T09:33:15.280Z,2.20
2023-05-13T09:35:52.960Z,2.50
2023-05-13T09:38:27.688Z,2.10
2023-05-13T09:40:56.199Z,2.00
2023-05-13T09:43:24.274Z,2.20
2023-05-13T09:45:54.890Z,2.00
2023-05-13T09:48:25.788Z,2.30
2023-05-13T09:50:53.631Z,2.00
2023-05-13T09:53:21.259Z,2.30
2023-05-13T09:55:48.659Z,2.50
2023-05-13T10:01:11.030Z,2.40
2023-05-13T10:03:38.117Z,2.50
2023-05-13T10:06:05.173Z,2.30
2023-05-13T10:08:32.274Z,2.30
2023-05-13T10:10:59.269Z,2.00
2023-05-13T10:13:27.820Z,2.10
2023-05-13T10:15:55.315Z,2.20
2023-05-13T10:18:23.952Z,2.30
2023-05-13T10:20:53.932Z,2.50
2023-05-13T10:23:24.840Z,1.80
2023-05-13T10:25:52.387Z,2.30
2023-05-13T10:28:19.322Z,2.30
2023-05-13T10:30:46.277Z,2.30
2023-05-13T10:33:13.125Z,2.50
2023-05-13T10:35:43.057Z,2.00
2023-05-13T10:38:25.723Z,1.80
2023-05-13T10:41:14.455Z,2.00
2023-05-13T10:43:41.478Z,2.30
2023-05-13T10:46:11.499Z,1.70
2023-05-13T10:48:44.555Z,2.60
2023-05-13T10:51:14.141Z,2.00
2023-05-13T10:53:47.936Z,1.90
2023-05-13T10:56:15.129Z,1.90
2023-05-13T10:58:42.103Z,2.00
2023-05-13T11:01:12.617Z,1.80
2023-05-13T11:03:39.925Z,1.90
2023-05-13T11:06:24.043Z,2.10
2023-05-13T11:08:53.581Z,2.10
2023-05-13T11:11:22.563Z,2.10
2023-05-13T11:14:02.678Z,2.10
2023-05-13T11:16:29.573Z,2.00
2023-05-13T11:18:56.599Z,2.00
2023-05-13T11:21:35.660Z,2.50
2023-05-13T11:24:04.146Z,2.10
2023-05-13T11:26:56.435Z,1.90
2023-05-13T11:29:34.456Z,2.30
2023-05-13T11:32:03.530Z,2.00
2023-05-13T11:34:30.750Z,2.00
2023-05-13T11:37:08.687Z,2.10
2023-05-13T11:39:36.127Z,2.10
2023-05-13T11:42:10.958Z,2.40
2023-05-13T11:44:45.301Z,2.20
2023-05-13T11:47:12.097Z,2.10
2023-05-13T11:49:46.429Z,2.20
2023-05-13T11:52:18.697Z,2.30
2023-05-13T11:54:50.066Z,2.30
2023-05-13T12:00:06.861Z,2.70
2023-05-13T12:02:35.462Z,1.90
2023-05-13T12:05:06.126Z,2.00
2023-05-13T12:07:33.183Z,2.20
2023-05-13T12:10:00.991Z,2.20
2023-05-13T12:12:28.840Z,2.20
2023-05-13T12:14:56.283Z,1.90
2023-05-13T12:17:23.452Z,2.20
2023-05-13T12:20:10.983Z,3.10
2023-05-13T12:22:49.246Z,2.00
2023-05-13T12:25:33.111Z,2.50
2023-05-13T12:27:59.993Z,4.00
2023-05-13T12:30:31.897Z,4.60
2023-05-13T12:32:59.173Z,2.40
2023-05-13T12:35:26.362Z,2.00
2023-05-13T12:38:03.982Z,1.90
2023-05-13T12:40:31.431Z,2.00
2023-05-13T12:43:01.628Z,1.90
2023-05-13T12:45:32.696Z,1.80
2023-05-13T12:48:00.089Z,2.10
2023-05-13T12:50:27.128Z,1.80
2023-05-13T12:52:53.941Z,2.10
2023-05-13T12:55:21.210Z,2.70
2023-05-13T12:58:14.723Z,4.50
2023-05-13T13:00:41.564Z,4.30
2023-05-13T13:03:08.722Z,2.70
2023-05-13T13:05:35.908Z,1.80
2023-05-13T13:08:05.401Z,2.20
2023-05-13T13:10:32.530Z,3.00
2023-05-13T13:12:59.345Z,2.50
2023-05-13T13:15:26.427Z,1.90
2023-05-13T13:17:53.369Z,2.10
2023-05-13T13:20:20.536Z,2.80
2023-05-13T13:22:47.258Z,2.70
2023-05-13T13:25:14.115Z,2.40
2023-05-13T13:27:40.892Z,1.90
2023-05-13T13:30:08.250Z,2.10
2023-05-13T13:32:35.937Z,2.00
2023-05-13T13:35:05.667Z,2.30
2023-05-13T13:37:32.587Z,1.90
2023-05-13T13:39:59.395Z,3.20
2023-05-13T13:42:40.294Z,4.20
2023-05-13T13:45:11.338Z,2.50
2023-05-13T13:47:38.550Z,2.40
2023-05-13T13:50:06.417Z,2.60
2023-05-13T13:52:33.342Z,2.20
2023-05-13T13:55:00.619Z,2.30
2023-05-13T13:57:27.537Z,2.10
2023-05-13T13:59:54.325Z,1.80
2023-05-13T14:02:21.140Z,1.90
2023-05-13T14:04:47.954Z,2.10
2023-05-13T14:07:15.534Z,3.20
2023-05-13T14:09:42.381Z,2.60
2023-05-13T14:12:18.775Z,2.60
2023-05-13T14:14:46.840Z,2.80
2023-05-13T14:17:14.506Z,2.50
2023-05-13T14:26:55.219Z,1.90
2023-05-13T14:29:23.272Z,2.20
2023-05-13T14:31:50.142Z,2.40
2023-05-13T14:34:16.918Z,2.00
2023-05-13T14:36:43.707Z,2.30
2023-05-13T14:39:10.937Z,2.40
2023-05-13T14:41:37.833Z,2.20
2023-05-13T14:44:04.887Z,1.70
2023-05-13T14:46:33.949Z,2.50
2023-05-13T14:49:00.776Z,7.20
2023-05-13T14:51:27.809Z,5.90
2023-05-13T14:53:54.603Z,3.20
2023-05-13T14:56:21.329Z,2.50
2023-05-13T14:58:48.112Z,3.20
2023-05-13T15:01:14.922Z,2.80
2023-05-13T15:03:42.204Z,2.60
2023-05-13T15:06:09.872Z,2.70
2023-05-13T15:08:37.845Z,2.20
2023-05-13T15:11:04.889Z,2.80
2023-05-13T15:13:36.953Z,2.70
2023-05-13T15:16:04.201Z,2.80
2023-05-13T15:18:31.465Z,2.50
2023-05-13T15:20:58.352Z,2.70
2023-05-13T15:23:25.289Z,2.30
2023-05-13T15:25:52.107Z,2.20
2023-05-13T15:28:18.966Z,2.30
2023-05-13T15:30:45.862Z,2.60
2023-05-13T15:33:12.960Z,2.60
2023-05-13T15:35:52.492Z,2.60
2023-05-13T15:38:23.850Z,2.90
2023-05-13T15:40:51.089Z,2.50
2023-05-13T15:43:18.127Z,2.20
2023-05-13T15:45:45.159Z,2.20
2023-05-13T15:48:12.031Z,2.40
2023-05-13T15:50:39.386Z,2.80
2023-05-13T15:53:06.419Z,2.90
2023-05-13T15:55:34.103Z,2.50
2023-05-13T15:58:00.934Z,2.20
2023-05-13T16:00:27.958Z,2.90
2023-05-13T16:02:54.975Z,3.10
2023-05-13T16:05:21.866Z,3.20
2023-05-13T16:07:48.940Z,2.90
2023-05-13T16:10:15.890Z,2.30
2023-05-13T16:12:43.040Z,2.30
2023-05-13T16:15:11.385Z,2.70
2023-05-13T16:17:38.211Z,2.50
2023-05-13T16:20:06.005Z,2.80
2023-05-13T16:22:34.801Z,3.00
2023-05-13T16:25:03.310Z,2.60
2023-05-13T16:27:30.285Z,2.90
2023-05-13T16:29:58.077Z,2.50
2023-05-13T16:32:25.064Z,2.50
2023-05-13T16:34:52.088Z,2.80
2023-05-13T16:37:18.908Z,2.70
2023-05-13T16:39:45.841Z,3.20
2023-05-13T16:42:12.589Z,3.40
2023-05-13T16:44:39.416Z,3.40
2023-05-13T16:47:07.225Z,3.00
2023-05-13T16:49:35.847Z,3.40
2023-05-13T16:52:06.171Z,3.70
2023-05-13T16:54:33.296Z,3.60
2023-05-13T16:57:00.438Z,3.90
2023-05-13T16:59:27.491Z,5.70
2023-05-13T17:01:54.722Z,5.60
2023-05-13T17:04:21.597Z,5.60
2023-05-13T17:06:48.338Z,4.90
2023-05-13T17:09:16.254Z,5.10
2023-05-13T17:11:43.212Z,5.50
2023-05-13T17:14:10.001Z,4.90
2023-05-13T17:16:37.126Z,4.60
2023-05-13T17:19:04.077Z,4.50
2023-05-13T17:21:30.848Z,4.70
2023-05-13T17:23:57.785Z,4.20
2023-05-13T17:26:24.902Z,3.30
2023-05-13T17:28:52.110Z,7.10
2023-05-13T17:31:18.868Z,7.40
2023-05-13T17:33:46.396Z,6.60
2023-05-13T17:36:13.132Z,5.20
2023-05-13T17:38:39.980Z,6.10
2023-05-13T17:41:06.707Z,4.40
2023-05-13T17:43:33.480Z,6.70
2023-05-13T17:46:00.232Z,12.80
2023-05-13T17:48:27.105Z,11.10
2023-05-13T17:50:54.111Z,17.50
2023-05-13T17:53:20.977Z,11.50
2023-05-13T17:55:48.569Z,9.90
2023-05-13T18:01:21.730Z,6.40
2023-05-13T18:03:48.830Z,5.30
2023-05-13T18:06:16.163Z,5.80
2023-05-13T18:08:43.070Z,5.90
2023-05-13T18:11:09.993Z,6.00
2023-05-13T18:13:36.775Z,4.90
2023-05-13T18:16:06.338Z,4.60
2023-05-13T18:18:33.291Z,4.70
2023-05-13T18:21:00.540Z,5.50
2023-05-13T18:23:27.292Z,4.90
2023-05-13T18:25:56.184Z,5.10
2023-05-13T18:28:23.546Z,7.00
2023-05-13T18:30:50.606Z,7.10
2023-05-13T18:33:20.140Z,10.70
2023-05-13T18:35:47.077Z,9.80
2023-05-13T18:38:13.912Z,6.40
2023-05-13T18:40:40.888Z,4.90
2023-05-13T18:43:07.782Z,4.70
2023-05-13T18:45:34.769Z,4.60
2023-05-13T18:48:01.717Z,4.50
2023-05-13T18:50:28.529Z,4.40
2023-05-13T18:52:55.380Z,3.80
2023-05-13T18:55:22.222Z,4.10
2023-05-13T18:57:50.243Z,3.60
2023-05-13T19:00:17.909Z,3.90
2023-05-13T19:02:44.943Z,4.80
2023-05-13T19:05:12.353Z,6.40
2023-05-13T19:07:39.360Z,5.80
2023-05-13T19:10:08.764Z,5.80
2023-05-13T19:12:35.520Z,6.40
2023-05-13T19:15:02.791Z,6.60
2023-05-13T19:17:30.590Z,6.10
2023-05-13T19:20:00.261Z,5.50
2023-05-13T19:22:27.553Z,4.90
2023-05-13T19:24:54.403Z,4.90
2023-05-13T19:27:22.225Z,5.20
2023-05-13T19:29:49.473Z,5.20
2023-05-13T19:32:16.742Z,4.90
2023-05-13T19:34:44.484Z,4.40
2023-05-13T19:37:11.510Z,4.10
2023-05-13T19:39:38.281Z,4.30
2023-05-13T19:42:05.364Z,3.90
2023-05-13T19:44:32.475Z,4.30
2023-05-13T19:46:59.607Z,3.80
2023-05-13T19:49:26.620Z,4.10
2023-05-13T19:51:56.127Z,5.00
2023-05-13T19:54:23.305Z,4.50
2023-05-13T19:56:50.160Z,5.20
2023-05-13T19:59:16.969Z,5.10
2023-05-13T20:01:43.774Z,4.80
2023-05-13T20:04:10.651Z,5.10
2023-05-13T20:06:37.776Z,5.60
2023-05-13T20:09:04.786Z,5.80
2023-05-13T20:11:32.136Z,4.70
2023-05-13T20:13:59.669Z,4.90
2023-05-13T20:16:27.270Z,5.60
2023-05-13T20:18:54.278Z,5.00
2023-05-13T20:21:21.268Z,6.70
2023-05-13T20:24:49.391Z,7.00
2023-05-13T20:27:16.673Z,7.80
2023-05-13T20:29:44.750Z,7.50
2023-05-13T20:32:11.831Z,6.60
2023-05-13T20:34:38.866Z,5.70
2023-05-13T20:37:06.009Z,6.30
2023-05-13T20:39:32.946Z,5.80
2023-05-13T20:42:00.001Z,6.40
2023-05-13T20:44:27.479Z,8.90
2023-05-13T20:46:54.305Z,11.80
2023-05-13T20:49:21.481Z,9.20
2023-05-13T20:51:48.785Z,9.30
2023-05-13T20:54:15.981Z,10.90
2023-05-13T20:56:42.780Z,10.60
2023-05-13T20:59:09.958Z,9.10
2023-05-13T21:01:37.027Z,10.40
2023-05-13T21:04:06.169Z,8.80
2023-05-13T21:06:33.309Z,8.50
2023-05-13T21:09:00.196Z,7.60
2023-05-13T21:11:27.359Z,7.40
2023-05-13T21:13:54.160Z,8.00
2023-05-13T21:16:21.001Z,9.50
2023-05-13T21:18:48.030Z,9.60
2023-05-13T21:21:14.974Z,9.30
2023-05-13T21:23:44.060Z,9.50
2023-05-13T21:26:10.842Z,9.60
2023-05-13T21:28:37.754Z,9.90
2023-05-13T21:31:04.670Z,10.20
2023-05-13T21:33:33.123Z,10.20
2023-05-13T21:35:59.934Z,9.80
2023-05-13T21:38:27.071Z,10.40
2023-05-13T21:40:53.924Z,10.60
2023-05-13T21:43:20.786Z,10.70
2023-05-13T21:45:48.212Z,10.50
2023-05-13T21:48:15.363Z,10.50
2023-05-13T21:50:42.304Z,9.80
2023-05-13T21:53:09.135Z,11.40
2023-05-13T21:55:36.039Z,9.80
2023-05-13T21:58:03.224Z,10.00
2023-05-13T22:00:30.388Z,9.90
2023-05-13T22:02:57.312Z,9.20
2023-05-13T22:05:24.259Z,10.00
2023-05-13T22:07:51.035Z,9.80
2023-05-13T22:10:17.934Z,10.20
2023-05-13T22:12:44.715Z,10.60
2023-05-13T22:15:12.449Z,10.40
2023-05-13T22:17:39.381Z,10.00
2023-05-13T22:20:07.388Z,10.70
2023-05-13T22:22:34.223Z,10.70
2023-05-13T22:25:01.200Z,10.10
2023-05-13T22:27:28.034Z,10.50
2023-05-13T22:29:54.871Z,10.10
2023-05-13T22:32:21.701Z,8.90
2023-05-13T22:34:48.550Z,9.00
2023-05-13T22:37:15.795Z,8.30
2023-05-13T22:39:42.575Z,9.10
2023-05-13T22:42:09.483Z,9.40
2023-05-13T22:44:36.233Z,8.70
2023-05-13T22:47:02.968Z,9.50
2023-05-13T22:49:29.707Z,8.90
2023-05-13T22:51:56.458Z,8.80
2023-05-13T22:54:24.010Z,8.90
2023-05-13T22:56:50.866Z,9.20
2023-05-13T22:59:17.692Z,8.90
2023-05-13T23:01:44.598Z,8.40
2023-05-13T23:04:11.756Z,8.60
2023-05-13T23:06:38.721Z,8.70
2023-05-13T23:09:05.971Z,8.90
2023-05-13T23:11:32.733Z,10.10
2023-05-13T23:13:59.578Z,8.60
2023-05-13T23:16:26.447Z,8.80
2023-05-13T23:18:55.244Z,9.40
2023-05-13T23:21:22.248Z,8.90
2023-05-13T23:23:50.329Z,8.60
2023-05-13T23:26:17.173Z,9.30
2023-05-13T23:28:43.918Z,8.10
2023-05-13T23:31:10.877Z,8.40
2023-05-13T23:33:37.686Z,8.50
2023-05-13T23:36:05.051Z,8.90
2023-05-13T23:38:31.779Z,9.20
2023-05-13T23:40:58.545Z,8.90
2023-05-13T23:43:25.488Z,8.60
2023-05-13T23:45:52.387Z,8.90
2023-05-13T23:48:19.372Z,8.90
2023-05-13T23:50:46.094Z,8.50
2023-05-13T23:53:12.857Z,8.80
2023-05-13T23:55:39.597Z,8.00
2023-05-13T23:58:06.358Z,9.10
